Time;durP1;ratioP1;P1;durP2;ratioP2;P2;SDS_P1;SDS_P2;PMS_P1;PMS_P2;Temp;Humidity;BMP_temperature;BMP_pressure;BME280_temperature;BME280_humidity;BME280_pressure;Samples;Min_cycle;Max_cycle;Signal;HPM_P1;HPM_P2
2022/01/25 00:27:07;;;;;;;;;;;4.80;99.90;;;;;;6165227;23;19912;-88
2022/01/25 00:29:54;;;;;;;;;;;4.80;99.90;;;;;;6174864;23;19916;-88
2022/01/25 00:32:20;;;;;;;;;;;4.80;99.90;;;;;;6174273;23;19912;-87
2022/01/25 00:34:45;;;;;;;;;;;4.80;99.90;;;;;;6202499;23;19912;-88
2022/01/25 00:37:11;;;;;;;;;;;4.70;99.90;;;;;;6173738;23;19942;-87
2022/01/25 00:39:38;;;;;;;;;;;4.80;99.90;;;;;;6174859;23;19932;-87
2022/01/25 00:42:05;;;;;;;;;;;4.60;99.90;;;;;;6135084;23;19912;-87
2022/01/25 00:44:35;;;;;;;;;;;4.60;99.90;;;;;;6201735;23;19962;-87
2022/01/25 00:47:01;;;;;;;;;;;4.70;99.90;;;;;;6201727;23;20303;-87
2022/01/25 00:49:29;;;;;;;;;;;4.60;99.90;;;;;;6175722;23;19916;-87
2022/01/25 00:54:32;;;;;;;;;;;4.60;99.90;;;;;;6202891;23;19919;-88
2022/01/25 00:56:58;;;;;;;;;;;4.60;99.90;;;;;;6174955;23;19988;-87
2022/01/25 00:59:25;;;;;;;;;;;4.70;99.90;;;;;;6176475;23;20547;-87
2022/01/25 01:01:52;;;;;;;;;;;4.70;99.90;;;;;;6174385;23;19912;-87
2022/01/25 01:04:18;;;;;;;;;;;4.70;99.90;;;;;;6175127;23;20272;-87
2022/01/25 01:06:45;;;;;;;;;;;4.60;99.90;;;;;;6200785;23;19912;-87
2022/01/25 01:09:12;;;;;;;;;;;4.70;99.90;;;;;;6201730;23;20336;-87
2022/01/25 01:11:44;;;;;;;;;;;4.70;99.90;;;;;;6173490;23;19924;-87
2022/01/25 01:14:20;;;;;;;;;;;4.60;99.90;;;;;;6200921;23;19915;-88
2022/01/25 01:30:35;;;;;;;;;;;4.70;99.90;;;;;;6201202;23;19919;-90
2022/01/25 01:33:12;;;;;;;;;;;4.70;99.90;;;;;;6172671;23;20358;-89
2022/01/25 01:40:56;;;;;;;;;;;4.70;99.90;;;;;;6201686;23;19908;-89
2022/01/25 01:43:30;;;;;;;;;;;4.70;99.90;;;;;;6173094;23;19915;-89
2022/01/25 01:48:52;;;;;;;;;;;4.60;99.90;;;;;;6166580;23;19970;-89
2022/01/25 01:51:24;;;;;;;;;;;4.60;99.90;;;;;;6199421;23;19912;-89
2022/01/25 01:53:50;;;;;;;;;;;4.50;99.90;;;;;;6176490;23;19912;-88
2022/01/25 01:56:16;;;;;;;;;;;4.50;99.90;;;;;;6175267;23;20026;-88
2022/01/25 01:58:42;;;;;;;;;;;4.50;99.90;;;;;;6176525;23;19912;-88
2022/01/25 02:01:09;;;;;;;;;;;4.50;99.90;;;;;;6175422;23;19912;-89
2022/01/25 02:03:35;;;;;;;;;;;4.50;99.90;;;;;;6184648;23;19924;-89
2022/01/25 02:06:01;;;;;;;;;;;4.60;99.90;;;;;;6175906;23;19922;-86
2022/01/25 02:08:26;;;;;;;;;;;4.70;99.90;;;;;;6202861;23;20773;-87
2022/01/25 02:10:52;;;;;;;;;;;4.60;99.90;;;;;;6175886;23;19915;-87
2022/01/25 02:13:17;;;;;;;;;;;4.60;99.90;;;;;;6152264;23;20006;-88
2022/01/25 02:15:47;;;;;;;;;;;4.60;99.90;;;;;;6176462;23;20309;-87
2022/01/25 02:23:43;;;;;;;;;;;4.50;99.90;;;;;;6202450;23;20339;-88
2022/01/25 02:26:09;;;;;;;;;;;4.50;99.90;;;;;;6174535;23;20588;-88
2022/01/25 02:28:36;;;;;;;;;;;4.50;99.90;;;;;;6175693;23;20003;-87
2022/01/25 02:31:03;;;;;;;;;;;4.50;99.90;;;;;;6174313;23;19935;-88
2022/01/25 02:33:29;;;;;;;;;;;4.50;99.90;;;;;;6202116;23;19983;-87
2022/01/25 02:35:55;;;;;;;;;;;4.50;99.90;;;;;;6174748;23;20003;-87
2022/01/25 02:38:22;;;;;;;;;;;4.50;99.90;;;;;;6200889;23;19916;-87
2022/01/25 02:40:48;;;;;;;;;;;4.40;99.90;;;;;;6176319;23;19916;-88
2022/01/25 02:43:16;;;;;;;;;;;4.40;99.90;;;;;;6175697;23;19927;-88
2022/01/25 02:45:45;;;;;;;;;;;4.40;99.90;;;;;;6176033;23;19912;-87
2022/01/25 02:48:30;;;;;;;;;;;4.40;99.90;;;;;;6202403;23;19916;-87
2022/01/25 02:50:59;;;;;;;;;;;4.40;99.90;;;;;;6175399;23;19911;-87
2022/01/25 02:53:25;;;;;;;;;;;4.40;99.90;;;;;;6176499;23;20340;-88
2022/01/25 02:55:51;;;;;;;;;;;4.40;99.90;;;;;;6176546;23;19928;-88
2022/01/25 02:58:16;;;;;;;;;;;4.40;99.90;;;;;;6202558;23;19971;-88
2022/01/25 03:00:42;;;;;;;;;;;4.40;99.90;;;;;;6175815;23;19912;-88
2022/01/25 03:03:07;;;;;;;;;;;4.40;99.90;;;;;;6176174;23;19924;-90
2022/01/25 03:05:35;;;;;;;;;;;4.40;99.90;;;;;;6176458;23;19951;-88
2022/01/25 03:08:01;;;;;;;;;;;4.40;99.90;;;;;;6175376;23;19936;-88
2022/01/25 03:10:38;;;;;;;;;;;4.30;99.90;;;;;;6201198;23;20301;-88
2022/01/25 03:13:05;;;;;;;;;;;4.30;99.90;;;;;;6176577;23;19919;-89
2022/01/25 03:21:02;;;;;;;;;;;4.30;99.90;;;;;;6200851;23;19919;-88
2022/01/25 03:23:32;;;;;;;;;;;4.30;99.90;;;;;;6202347;23;19922;-89
2022/01/25 03:25:58;;;;;;;;;;;4.30;99.90;;;;;;6174270;23;19932;-88
2022/01/25 03:28:24;;;;;;;;;;;4.30;99.90;;;;;;6175914;23;19939;-88
2022/01/25 03:30:50;;;;;;;;;;;4.30;99.90;;;;;;6175598;23;19934;-88
2022/01/25 03:33:16;;;;;;;;;;;4.30;99.90;;;;;;6176240;23;19936;-88
2022/01/25 03:35:42;;;;;;;;;;;4.20;99.90;;;;;;6201488;23;19923;-88
2022/01/25 03:38:08;;;;;;;;;;;4.30;99.90;;;;;;6175182;23;19932;-87
2022/01/25 03:40:33;;;;;;;;;;;4.30;99.90;;;;;;6202157;23;20387;-88
2022/01/25 03:43:00;;;;;;;;;;;4.40;99.90;;;;;;6176723;23;20200;-88
2022/01/25 03:45:31;;;;;;;;;;;4.30;99.90;;;;;;6176158;23;19923;-87
2022/01/25 03:50:39;;;;;;;;;;;4.30;99.90;;;;;;6203867;23;19931;-87
2022/01/25 03:53:05;;;;;;;;;;;4.30;99.90;;;;;;6176855;23;20344;-87
2022/01/25 03:55:31;;;;;;;;;;;4.20;99.90;;;;;;6203185;23;20005;-87
2022/01/25 03:57:56;;;;;;;;;;;4.20;99.90;;;;;;6176766;23;20284;-86
2022/01/25 04:00:22;;;;;;;;;;;4.10;99.90;;;;;;6176648;23;19932;-88
2022/01/25 04:02:56;;;;;;;;;;;4.20;99.90;;;;;;6204121;23;19908;-88
2022/01/25 04:05:33;;;;;;;;;;;4.20;99.90;;;;;;6176908;23;19936;-86
2022/01/25 04:07:58;;;;;;;;;;;4.30;99.90;;;;;;6203244;23;19912;-87
2022/01/25 04:10:24;;;;;;;;;;;4.20;99.90;;;;;;6177484;23;19914;-87
2022/01/25 04:12:49;;;;;;;;;;;4.10;99.90;;;;;;6204408;23;19908;-87
2022/01/25 04:15:15;;;;;;;;;;;4.00;99.90;;;;;;6177652;23;19939;-87
2022/01/25 04:17:44;;;;;;;;;;;4.00;99.90;;;;;;6177637;23;19917;-88
2022/01/25 04:25:22;;;;;;;;;;;4.00;99.90;;;;;;6202346;23;20005;-88
2022/01/25 04:27:48;;;;;;;;;;;3.90;99.90;;;;;;6204621;23;19911;-88
2022/01/25 04:30:13;;;;;;;;;;;3.90;99.90;;;;;;6176092;23;20588;-88
2022/01/25 04:32:53;;;;;;;;;;;3.90;99.90;;;;;;6177306;23;19915;-88
2022/01/25 04:49:10;;;;;;;;;;;3.90;99.90;;;;;;6183730;23;19935;-84
2022/01/25 05:00:49;;;;;;;;;;;4.00;99.90;;;;;;6047433;23;19909;-90
2022/01/25 05:03:37;;;;;;;;;;;;;;;;;;;;;
2022/01/25 05:06:10;;;;;;;;;;;4.00;99.90;;;;;;6102948;23;19926;-90
2022/01/25 05:09:06;;;;;;;;;;;4.00;99.90;;;;;;6095091;23;20349;-90
2022/01/25 05:11:33;;;;;;;;;;;4.00;99.90;;;;;;6081300;23;19959;-90
2022/01/25 05:17:00;;;;;;;;;;;3.90;99.90;;;;;;6108442;23;19917;-90
2022/01/25 05:22:07;;;;;;;;;;;3.90;99.90;;;;;;6153021;23;19983;-89
2022/01/25 05:24:34;;;;;;;;;;;3.90;99.90;;;;;;6147795;23;19916;-89
2022/01/25 05:26:59;;;;;;;;;;;4.00;99.90;;;;;;6147723;23;20444;-89
2022/01/25 05:29:28;;;;;;;;;;;4.00;99.90;;;;;;6148943;23;19913;-89
2022/01/25 05:31:53;;;;;;;;;;;3.90;99.90;;;;;;6147186;23;19916;-88
2022/01/25 05:34:19;;;;;;;;;;;4.00;99.90;;;;;;6148584;23;19944;-89
2022/01/25 05:36:47;;;;;;;;;;;4.00;99.90;;;;;;6173968;23;19912;-90
2022/01/25 05:39:17;;;;;;;;;;;4.00;99.90;;;;;;6147232;23;19920;-89
2022/01/25 05:41:45;;;;;;;;;;;4.00;99.90;;;;;;6173473;23;19999;-89
2022/01/25 05:59:56;;;;;;;;;;;4.00;99.90;;;;;;6163018;23;19928;-90
2022/01/25 06:02:25;;;;;;;;;;;4.00;99.90;;;;;;6131647;23;19912;-87
2022/01/25 06:04:52;;;;;;;;;;;4.00;99.90;;;;;;6174323;23;20305;-90
2022/01/25 06:07:17;;;;;;;;;;;4.00;99.90;;;;;;6173078;23;19909;-89
2022/01/25 06:09:43;;;;;;;;;;;4.00;99.90;;;;;;6148173;23;19920;-89
2022/01/25 06:12:14;;;;;;;;;;;3.90;99.90;;;;;;6132366;23;20317;-93
2022/01/25 06:14:43;;;;;;;;;;;3.90;99.90;;;;;;6116385;23;19964;-92
2022/01/25 06:17:08;;;;;;;;;;;4.00;99.90;;;;;;6112139;23;20584;-91
2022/01/25 06:19:34;;;;;;;;;;;4.00;99.90;;;;;;6084867;23;19936;-90
2022/01/25 06:25:07;;;;;;;;;;;3.90;99.90;;;;;;6008767;23;19952;-92
2022/01/25 06:27:33;;;;;;;;;;;3.90;99.90;;;;;;5974586;23;20394;-91
2022/01/25 06:30:04;;;;;;;;;;;3.80;99.90;;;;;;5986856;23;19914;-92
2022/01/25 06:32:30;;;;;;;;;;;3.90;99.90;;;;;;5996614;23;19941;-91
2022/01/25 06:34:55;;;;;;;;;;;3.90;99.90;;;;;;5986440;23;19949;-91
2022/01/25 06:37:21;;;;;;;;;;;3.90;99.90;;;;;;5988396;23;19914;-91
2022/01/25 06:39:50;;;;;;;;;;;3.90;99.90;;;;;;5981915;23;20340;-90
2022/01/25 06:42:18;;;;;;;;;;;3.90;99.90;;;;;;5993638;23;19910;-91
2022/01/25 06:44:43;;;;;;;;;;;3.90;99.90;;;;;;5995203;23;19921;-90
2022/01/25 06:47:09;;;;;;;;;;;3.90;99.90;;;;;;5970634;23;19915;-91
2022/01/25 06:49:34;;;;;;;;;;;3.90;99.90;;;;;;5995716;23;19914;-91
2022/01/25 06:52:00;;;;;;;;;;;3.90;99.90;;;;;;6002102;23;19950;-91
2022/01/25 06:54:26;;;;;;;;;;;3.90;99.90;;;;;;5966342;23;19937;-91
2022/01/25 06:56:51;;;;;;;;;;;3.90;99.90;;;;;;5975129;23;19921;-93
2022/01/25 06:59:17;;;;;;;;;;;3.90;99.90;;;;;;5953611;23;19946;-91
2022/01/25 07:01:43;;;;;;;;;;;3.90;99.90;;;;;;6048111;23;19916;-88
2022/01/25 07:04:08;;;;;;;;;;;3.90;99.90;;;;;;6153819;23;19916;-88
2022/01/25 07:06:34;;;;;;;;;;;3.90;99.90;;;;;;6116472;23;19913;-84
2022/01/25 07:09:01;;;;;;;;;;;3.90;99.90;;;;;;6117834;23;20345;-86
2022/01/25 07:11:29;;;;;;;;;;;3.90;99.90;;;;;;6115645;23;19912;-85
2022/01/25 07:13:54;;;;;;;;;;;3.90;99.90;;;;;;6116199;23;19909;-84
2022/01/25 07:16:20;;;;;;;;;;;3.80;99.90;;;;;;6116271;23;19955;-85
2022/01/25 07:18:45;;;;;;;;;;;3.80;99.90;;;;;;6116811;23;19916;-86
2022/01/25 07:21:11;;;;;;;;;;;3.80;99.90;;;;;;6142048;23;19927;-85
2022/01/25 07:23:36;;;;;;;;;;;3.90;99.90;;;;;;6116208;23;19917;-85
2022/01/25 07:26:02;;;;;;;;;;;3.90;99.90;;;;;;6116872;23;19987;-85
2022/01/25 07:28:36;;;;;;;;;;;3.90;99.90;;;;;;6106560;23;19916;-93
2022/01/25 07:37:18;;;;;;;;;;;;;;;;;;;;;
2022/01/25 07:42:42;;;;;;;;;;;3.90;99.90;;;;;;6173704;23;19924;-93
2022/01/25 07:45:12;;;;;;;;;;;3.90;99.90;;;;;;6062073;23;19927;-93
2022/01/25 07:47:38;;;;;;;;;;;3.80;99.90;;;;;;6091898;23;20008;-93
2022/01/25 07:50:24;;;;;;;;;;;3.90;99.90;;;;;;6131287;23;20321;-93
2022/01/25 07:52:52;;;;;;;;;;;3.90;99.90;;;;;;6110355;23;19923;-94
2022/01/25 07:55:18;;;;;;;;;;;3.90;99.90;;;;;;6048805;23;20380;-94
2022/01/25 07:57:47;;;;;;;;;;;3.90;99.90;;;;;;6131780;23;19908;-93
2022/01/25 08:00:16;;;;;;;;;;;3.90;99.90;;;;;;6075230;23;20265;-94
2022/01/25 08:03:17;;;;;;;;;;;3.90;99.90;;;;;;6140428;23;19923;-94
2022/01/25 08:05:48;;;;;;;;;;;4.00;99.90;;;;;;6114449;23;19923;-93
2022/01/25 08:08:17;;;;;;;;;;;4.00;99.90;;;;;;6060504;23;19965;-93
2022/01/25 08:11:05;;;;;;;;;;;4.00;99.90;;;;;;6083976;23;19940;-93
2022/01/25 08:17:33;;;;;;;;;;;;;;;;;;;;;
2022/01/25 08:27:25;;;;;;;;;;;;;;;;;;;;;
2022/01/25 10:24:10;;;;;;;;;;;4.90;99.90;;;;;;6181654;23;19924;-94
2022/01/25 10:26:46;;;;;;;;;;;4.70;99.90;;;;;;6138391;23;19912;-94
2022/01/25 10:29:18;;;;;;;;;;;4.70;99.90;;;;;;6177875;23;20362;-93
2022/01/25 10:31:57;;;;;;;;;;;;;;;;;;;;;
2022/01/25 10:34:30;;;;;;;;;;;4.70;99.90;;;;;;6151685;23;20760;-93
2022/01/25 10:37:21;;;;;;;;;;;4.70;99.90;;;;;;6150067;23;19943;-93
2022/01/25 10:39:48;;;;;;;;;;;4.70;99.90;;;;;;6117141;23;19916;-93
2022/01/25 10:42:23;;;;;;;;;;;4.80;99.90;;;;;;6158619;23;19920;-94
2022/01/25 10:44:54;;;;;;;;;;;4.60;99.90;;;;;;6161057;23;20096;-94
2022/01/25 10:47:37;;;;;;;;;;;4.60;99.90;;;;;;6167239;23;19919;-94
2022/01/25 10:50:17;;;;;;;;;;;4.70;99.90;;;;;;6125017;23;19916;-94
2022/01/25 10:52:43;;;;;;;;;;;4.90;99.90;;;;;;6144006;23;19916;-93
2022/01/25 10:58:05;;;;;;;;;;;4.90;99.90;;;;;;6073107;23;19914;-96
2022/01/25 11:03:43;;;;;;;;;;;4.90;99.90;;;;;;6080726;23;19942;-92
2022/01/25 11:06:47;;;;;;;;;;;4.90;99.90;;;;;;6035804;23;19909;-93
2022/01/25 11:09:17;;;;;;;;;;;4.90;99.90;;;;;;5969115;23;19990;-93
2022/01/25 11:11:51;;;;;;;;;;;5.00;99.90;;;;;;6037993;23;19976;-89
2022/01/25 11:17:24;;;;;;;;;;;4.90;99.90;;;;;;6042375;23;19920;-92
2022/01/25 11:19:50;;;;;;;;;;;4.90;99.90;;;;;;6042657;23;19913;-91
2022/01/25 11:22:22;;;;;;;;;;;4.90;99.90;;;;;;6057345;23;19928;-91
2022/01/25 11:24:48;;;;;;;;;;;5.00;99.90;;;;;;6058925;23;19925;-92
2022/01/25 11:27:18;;;;;;;;;;;5.10;99.90;;;;;;6066953;23;19953;-90
2022/01/25 11:29:44;;;;;;;;;;;5.30;99.90;;;;;;6045671;23;19910;-91
2022/01/25 11:32:14;;;;;;;;;;;5.40;99.90;;;;;;6079668;23;20330;-90
2022/01/25 11:34:44;;;;;;;;;;;5.40;99.90;;;;;;6095373;23;20228;-91
2022/01/25 11:37:09;;;;;;;;;;;5.40;99.90;;;;;;6133221;23;19915;-90
2022/01/25 11:39:38;;;;;;;;;;;5.40;99.90;;;;;;6175588;23;20071;-90
2022/01/25 11:42:06;;;;;;;;;;;5.40;99.90;;;;;;6173463;23;19911;-90
2022/01/25 11:44:32;;;;;;;;;;;5.40;99.90;;;;;;6158507;23;19915;-90
2022/01/25 11:47:16;;;;;;;;;;;5.40;99.90;;;;;;6136434;23;19915;-92
2022/01/25 11:49:54;;;;;;;;;;;5.50;99.90;;;;;;6154299;23;20351;-91
2022/01/25 11:52:21;;;;;;;;;;;5.50;99.90;;;;;;6177829;23;19909;-90
2022/01/25 11:54:49;;;;;;;;;;;5.40;99.90;;;;;;6175748;23;20288;-91
2022/01/25 11:57:19;;;;;;;;;;;5.40;99.90;;;;;;6175423;23;19912;-91
2022/01/25 11:59:58;;;;;;;;;;;5.40;99.90;;;;;;6176794;23;19919;-91
2022/01/25 12:02:38;;;;;;;;;;;5.30;99.90;;;;;;6175190;23;19912;-91
2022/01/25 12:05:15;;;;;;;;;;;5.30;99.90;;;;;;6175186;23;19939;-91
2022/01/25 12:07:59;;;;;;;;;;;5.20;99.90;;;;;;6174924;23;19939;-90
2022/01/25 12:10:35;;;;;;;;;;;5.20;99.90;;;;;;6132175;23;19919;-91
2022/01/25 12:13:13;;;;;;;;;;;5.20;99.90;;;;;;6165069;23;19912;-90
2022/01/25 12:15:39;;;;;;;;;;;5.20;99.90;;;;;;6200049;23;20391;-90
2022/01/25 12:18:10;;;;;;;;;;;5.30;99.90;;;;;;6175359;23;20252;-90
2022/01/25 12:20:46;;;;;;;;;;;5.30;99.90;;;;;;6174208;23;19923;-90
2022/01/25 12:23:20;;;;;;;;;;;5.30;99.90;;;;;;6174233;23;19919;-92
2022/01/25 12:26:09;;;;;;;;;;;5.30;99.90;;;;;;6175208;23;19924;-90
2022/01/25 12:28:42;;;;;;;;;;;5.30;99.90;;;;;;6176111;23;20324;-90
2022/01/25 12:31:14;;;;;;;;;;;5.30;99.90;;;;;;6172960;23;19912;-90
2022/01/25 12:33:40;;;;;;;;;;;5.30;99.90;;;;;;6176145;23;20328;-92
2022/01/25 12:36:07;;;;;;;;;;;5.30;99.90;;;;;;6201014;23;20046;-89
2022/01/25 12:38:43;;;;;;;;;;;5.30;99.90;;;;;;6176131;23;20296;-91
2022/01/25 12:41:13;;;;;;;;;;;5.30;99.90;;;;;;6174827;23;20385;-92
2022/01/25 12:43:55;;;;;;;;;;;5.30;99.90;;;;;;6175355;23;19966;-92
2022/01/25 12:46:24;;;;;;;;;;;5.30;99.90;;;;;;6173353;23;19981;-90
2022/01/25 12:48:59;;;;;;;;;;;5.30;99.90;;;;;;6201207;23;20352;-90
2022/01/25 12:51:27;;;;;;;;;;;5.20;99.90;;;;;;6170871;23;19935;-90
2022/01/25 12:53:54;;;;;;;;;;;5.20;99.90;;;;;;6201848;23;20391;-89
2022/01/25 12:56:21;;;;;;;;;;;5.20;99.90;;;;;;6173626;23;19912;-89
2022/01/25 12:58:50;;;;;;;;;;;5.20;99.90;;;;;;6174416;23;19934;-92
2022/01/25 13:01:17;;;;;;;;;;;5.20;99.90;;;;;;6134137;23;19912;-93
2022/01/25 13:03:46;;;;;;;;;;;5.10;99.90;;;;;;6137197;23;19943;-92
2022/01/25 13:06:11;;;;;;;;;;;5.20;99.90;;;;;;6157431;23;19991;-91
2022/01/25 13:08:41;;;;;;;;;;;5.20;99.90;;;;;;6175149;23;20001;-90
2022/01/25 13:11:20;;;;;;;;;;;5.10;99.90;;;;;;6173367;23;19912;-90
2022/01/25 13:13:59;;;;;;;;;;;5.20;99.90;;;;;;6174698;23;19912;-90
2022/01/25 13:16:38;;;;;;;;;;;5.20;99.90;;;;;;6173965;23;19916;-91
2022/01/25 13:19:04;;;;;;;;;;;5.10;99.90;;;;;;6200283;23;20308;-91
2022/01/25 13:21:57;;;;;;;;;;;5.10;99.90;;;;;;6173739;23;19969;-90
2022/01/25 13:24:26;;;;;;;;;;;5.20;99.90;;;;;;6170244;23;19931;-90
2022/01/25 13:26:55;;;;;;;;;;;5.20;99.90;;;;;;6199292;23;19916;-90
2022/01/25 13:32:17;;;;;;;;;;;5.20;99.90;;;;;;6199515;23;19988;-89
2022/01/25 13:34:43;;;;;;;;;;;5.10;99.90;;;;;;6172686;23;20698;-89
2022/01/25 13:37:19;;;;;;;;;;;5.50;99.90;;;;;;6170616;23;20244;-90
2022/01/25 13:39:53;;;;;;;;;;;5.40;99.90;;;;;;6173439;23;19908;-90
2022/01/25 13:42:25;;;;;;;;;;;5.30;99.90;;;;;;6172658;23;20388;-89
2022/01/25 13:47:55;;;;;;;;;;;5.70;99.90;;;;;;6202278;23;20355;-90
2022/01/25 13:50:21;;;;;;;;;;;6.30;99.90;;;;;;6176388;23;19974;-90
2022/01/25 13:52:49;;;;;;;;;;;5.70;99.90;;;;;;6177168;23;20388;-90
2022/01/25 13:55:15;;;;;;;;;;;5.50;99.90;;;;;;6161494;23;19920;-90
2022/01/25 13:57:41;;;;;;;;;;;5.30;99.90;;;;;;6202821;23;20363;-91
2022/01/25 14:00:07;;;;;;;;;;;5.30;99.90;;;;;;6201893;23;19958;-90
2022/01/25 14:02:35;;;;;;;;;;;5.30;99.90;;;;;;6177576;23;19916;-91
2022/01/25 14:05:01;;;;;;;;;;;5.20;99.90;;;;;;6176934;23;20015;-91
2022/01/25 14:07:27;;;;;;;;;;;5.20;99.90;;;;;;6176705;23;19942;-90
2022/01/25 14:10:03;;;;;;;;;;;5.10;99.90;;;;;;6178819;23;20333;-90
2022/01/25 14:23:28;;;;;;;;;;;5.20;99.90;;;;;;6190924;23;19923;-91
2022/01/25 14:26:11;;;;;;;;;;;5.20;99.90;;;;;;6176677;23;19912;-91
2022/01/25 14:28:41;;;;;;;;;;;5.20;99.90;;;;;;6166099;23;19912;-91
2022/01/25 14:31:25;;;;;;;;;;;5.10;99.90;;;;;;6175700;23;20307;-90
2022/01/25 14:34:11;;;;;;;;;;;5.00;99.90;;;;;;6129360;23;19908;-90
2022/01/25 14:36:42;;;;;;;;;;;5.00;99.90;;;;;;6165028;23;19959;-90
2022/01/25 14:39:27;;;;;;;;;;;5.00;99.90;;;;;;6129254;23;20481;-92
2022/01/25 14:42:11;;;;;;;;;;;5.10;99.90;;;;;;6137746;23;20213;-92
2022/01/25 14:44:53;;;;;;;;;;;;;;;;;;;;;
2022/01/25 14:47:22;;;;;;;;;;;6.30;99.90;;;;;;6139301;23;20349;-89
2022/01/25 14:49:59;;;;;;;;;;;6.30;99.90;;;;;;6123784;23;20329;-89
2022/01/25 14:55:19;;;;;;;;;;;5.50;99.90;;;;;;6149243;23;20338;-88
2022/01/25 14:58:04;;;;;;;;;;;5.30;99.90;;;;;;6195850;23;19919;-90
2022/01/25 15:01:12;;;;;;;;;;;5.20;99.90;;;;;;6122556;23;20241;-91
2022/01/25 15:03:44;;;;;;;;;;;5.10;99.90;;;;;;6128222;23;19917;-92
2022/01/25 15:06:10;;;;;;;;;;;5.10;99.90;;;;;;5995090;23;20001;-91
2022/01/25 15:12:44;;;;;;;;;;;;;;;;;;;;;
2022/01/25 15:18:07;;;;;;;;;;;5.00;99.90;;;;;;5914841;24;19917;-92
2022/01/25 15:20:39;;;;;;;;;;;5.00;99.90;;;;;;5835795;24;19915;-92
2022/01/25 15:23:19;;;;;;;;;;;;;;;;;;;;;
2022/01/25 15:26:53;;;;;;;;;;;5.00;99.90;;;;;;5890247;24;20342;-92
2022/01/25 15:28:58;;;;;;;;;;;5.00;99.90;;;;;;5955900;24;19915;-94
2022/01/25 15:31:24;;;;;;;;;;;5.00;99.90;;;;;;5949491;24;19919;-89
2022/01/25 15:33:51;;;;;;;;;;;4.90;99.90;;;;;;5972174;24;19915;-94
2022/01/25 15:36:21;;;;;;;;;;;4.90;99.90;;;;;;5947293;24;19914;-91
2022/01/25 15:38:51;;;;;;;;;;;4.90;99.90;;;;;;5921704;23;19918;-93
2022/01/25 15:41:22;;;;;;;;;;;4.90;99.90;;;;;;5940319;24;20264;-95
2022/01/25 15:43:57;;;;;;;;;;;4.90;99.90;;;;;;5953844;24;20340;-93
2022/01/25 15:46:55;;;;;;;;;;;4.90;99.90;;;;;;5978628;23;19917;-93
2022/01/25 15:49:09;;;;;;;;;;;4.90;99.90;;;;;;6025624;23;20033;-94
2022/01/25 15:51:45;;;;;;;;;;;4.80;99.90;;;;;;6081765;23;19924;-95
2022/01/25 15:54:13;;;;;;;;;;;4.90;99.90;;;;;;6128814;23;19913;-94
2022/01/25 15:56:42;;;;;;;;;;;4.80;99.90;;;;;;6139306;23;20365;-95
2022/01/25 15:59:08;;;;;;;;;;;4.80;99.90;;;;;;6128640;23;19909;-94
2022/01/25 16:01:48;;;;;;;;;;;4.80;99.90;;;;;;6114488;23;19987;-90
2022/01/25 16:04:44;;;;;;;;;;;4.80;99.90;;;;;;6128283;23;19947;-93
2022/01/25 16:07:10;;;;;;;;;;;4.80;99.90;;;;;;6120473;23;19919;-92
2022/01/25 16:09:46;;;;;;;;;;;4.80;99.90;;;;;;6093552;23;20043;-93
2022/01/25 16:12:14;;;;;;;;;;;4.80;99.90;;;;;;6099693;23;19967;-95
2022/01/25 16:14:40;;;;;;;;;;;4.80;99.90;;;;;;6156287;23;19942;-94
2022/01/25 16:17:09;;;;;;;;;;;4.90;99.90;;;;;;6151465;23;19912;-94
2022/01/25 16:19:37;;;;;;;;;;;4.80;99.90;;;;;;6125592;23;19912;-91
2022/01/25 16:22:03;;;;;;;;;;;4.80;99.90;;;;;;6171526;23;19919;-93
2022/01/25 16:24:29;;;;;;;;;;;4.90;99.90;;;;;;6201870;23;19972;-90
2022/01/25 16:26:54;;;;;;;;;;;5.10;99.90;;;;;;6174195;23;19983;-91
2022/01/25 16:29:20;;;;;;;;;;;5.00;99.90;;;;;;6204050;23;20335;-92
2022/01/25 16:31:46;;;;;;;;;;;4.90;99.90;;;;;;6174797;23;20005;-94
2022/01/25 16:34:12;;;;;;;;;;;4.90;99.90;;;;;;6159201;23;20454;-91
2022/01/25 16:36:38;;;;;;;;;;;4.90;99.90;;;;;;6173200;23;19963;-91
2022/01/25 16:39:05;;;;;;;;;;;4.80;99.90;;;;;;6180780;23;19912;-92
2022/01/25 16:41:31;;;;;;;;;;;4.90;99.90;;;;;;6200201;23;19912;-93
2022/01/25 16:43:56;;;;;;;;;;;4.90;99.90;;;;;;6175180;23;19990;-92
2022/01/25 16:46:22;;;;;;;;;;;4.80;99.90;;;;;;6176064;23;20308;-91
2022/01/25 16:48:48;;;;;;;;;;;4.80;99.90;;;;;;6178348;23;19963;-93
2022/01/25 16:51:14;;;;;;;;;;;4.80;99.90;;;;;;6182085;23;19964;-95
2022/01/25 16:53:42;;;;;;;;;;;4.80;99.90;;;;;;6148103;23;20161;-92
2022/01/25 16:56:08;;;;;;;;;;;4.80;99.90;;;;;;6176502;23;20387;-94
2022/01/25 16:58:36;;;;;;;;;;;4.80;99.90;;;;;;6185310;23;19912;-91
2022/01/25 17:01:01;;;;;;;;;;;4.80;99.90;;;;;;6149097;23;19920;-93
2022/01/25 17:03:27;;;;;;;;;;;4.80;99.90;;;;;;6158784;23;20100;-93
2022/01/25 17:05:52;;;;;;;;;;;4.80;99.90;;;;;;6208120;23;19939;-96
2022/01/25 17:08:22;;;;;;;;;;;4.80;99.90;;;;;;6179717;23;19958;-93
2022/01/25 17:10:49;;;;;;;;;;;4.70;99.90;;;;;;6150783;23;19927;-94
2022/01/25 17:13:14;;;;;;;;;;;4.70;99.90;;;;;;6200533;23;20598;-94
2022/01/25 17:16:09;;;;;;;;;;;4.70;99.90;;;;;;6141876;23;19912;-93
2022/01/25 17:18:42;;;;;;;;;;;4.70;99.90;;;;;;6152636;23;20022;-94
2022/01/25 17:21:10;;;;;;;;;;;4.70;99.90;;;;;;6186598;23;20320;-95
2022/01/25 17:23:36;;;;;;;;;;;4.70;99.90;;;;;;6167456;23;19919;-91
2022/01/25 17:26:02;;;;;;;;;;;4.70;99.90;;;;;;6154647;23;19919;-94
2022/01/25 17:28:27;;;;;;;;;;;4.70;99.90;;;;;;6162501;23;19912;-90
2022/01/25 17:30:57;;;;;;;;;;;4.80;99.90;;;;;;6183577;23;20418;-93
2022/01/25 17:33:32;;;;;;;;;;;4.70;99.90;;;;;;6182624;23;20336;-88
2022/01/25 17:36:06;;;;;;;;;;;4.70;99.90;;;;;;6193084;23;20164;-90
2022/01/25 17:38:32;;;;;;;;;;;4.70;99.90;;;;;;6159482;23;19912;-90
2022/01/25 17:41:15;;;;;;;;;;;4.70;99.90;;;;;;6193325;23;19919;-89
2022/01/25 17:43:49;;;;;;;;;;;4.70;99.90;;;;;;6167049;23;19924;-92
2022/01/25 17:46:16;;;;;;;;;;;4.80;99.90;;;;;;6179052;23;20324;-95
2022/01/25 17:48:53;;;;;;;;;;;4.80;99.90;;;;;;6136752;23;19924;-90
2022/01/25 17:51:19;;;;;;;;;;;4.80;99.90;;;;;;6109006;23;19964;-91
2022/01/25 17:53:50;;;;;;;;;;;4.80;99.90;;;;;;6129211;23;19922;-91
2022/01/25 17:56:32;;;;;;;;;;;4.80;99.90;;;;;;6131863;23;19963;-91
2022/01/25 17:58:58;;;;;;;;;;;4.80;99.90;;;;;;6140732;23;19912;-91
2022/01/25 18:01:24;;;;;;;;;;;4.80;99.90;;;;;;6166195;23;20518;-90
2022/01/25 18:03:50;;;;;;;;;;;4.80;99.90;;;;;;6120490;23;19942;-91
2022/01/25 18:06:21;;;;;;;;;;;4.80;99.90;;;;;;6124043;23;20241;-91
2022/01/25 18:08:46;;;;;;;;;;;4.80;99.90;;;;;;6134751;23;19959;-90
2022/01/25 18:11:19;;;;;;;;;;;4.80;99.90;;;;;;6148513;23;19921;-90
2022/01/25 18:14:05;;;;;;;;;;;4.80;99.90;;;;;;6115471;23;19969;-90
2022/01/25 18:16:46;;;;;;;;;;;4.80;99.90;;;;;;6101651;23;19964;-91
2022/01/25 18:19:14;;;;;;;;;;;4.80;99.90;;;;;;6098058;23;19972;-89
2022/01/25 18:21:43;;;;;;;;;;;4.70;99.90;;;;;;6120008;23;19912;-93
2022/01/25 18:24:14;;;;;;;;;;;4.80;99.90;;;;;;6130339;23;20038;-91
2022/01/25 18:29:06;;;;;;;;;;;4.70;99.90;;;;;;6204406;23;19911;-90
2022/01/25 18:31:31;;;;;;;;;;;4.70;99.90;;;;;;6174467;23;19931;-90
2022/01/25 18:33:57;;;;;;;;;;;4.70;99.90;;;;;;6176471;23;19950;-90
2022/01/25 18:36:23;;;;;;;;;;;4.80;99.90;;;;;;6175330;23;20536;-91
2022/01/25 18:38:49;;;;;;;;;;;5.00;99.90;;;;;;6175772;23;19912;-90
2022/01/25 18:41:14;;;;;;;;;;;4.90;99.90;;;;;;6175700;23;19931;-90
2022/01/25 18:43:40;;;;;;;;;;;4.80;99.90;;;;;;6175864;23;19916;-89
2022/01/25 18:46:07;;;;;;;;;;;4.80;99.90;;;;;;6176444;23;20231;-90
2022/01/25 18:48:37;;;;;;;;;;;4.70;99.90;;;;;;6190482;23;19912;-89
2022/01/25 18:51:04;;;;;;;;;;;4.70;99.90;;;;;;6184397;23;19967;-91
2022/01/25 18:53:30;;;;;;;;;;;4.80;99.90;;;;;;6148181;23;19946;-89
2022/01/25 18:55:56;;;;;;;;;;;4.70;99.90;;;;;;6125886;23;19948;-89
2022/01/25 18:58:46;;;;;;;;;;;4.70;99.90;;;;;;6181983;23;19919;-90
2022/01/25 19:01:14;;;;;;;;;;;4.70;99.90;;;;;;6189713;23;19919;-89
2022/01/25 19:03:40;;;;;;;;;;;4.70;99.90;;;;;;6161031;23;19943;-90
2022/01/25 19:06:07;;;;;;;;;;;4.70;99.90;;;;;;6155539;23;19919;-89
2022/01/25 19:15:09;;;;;;;;;;;4.60;99.90;;;;;;6127165;23;19996;-91
2022/01/25 19:17:35;;;;;;;;;;;4.70;99.90;;;;;;6174037;23;19963;-90
2022/01/25 19:20:01;;;;;;;;;;;4.70;99.90;;;;;;6204061;23;19915;-89
2022/01/25 19:22:27;;;;;;;;;;;4.60;99.90;;;;;;6174745;23;19908;-90
2022/01/25 19:24:56;;;;;;;;;;;4.60;99.90;;;;;;6178365;23;19916;-90
2022/01/25 19:28:03;;;;;;;;;;;4.60;99.90;;;;;;6162622;23;19919;-94
2022/01/25 19:30:33;;;;;;;;;;;4.60;99.90;;;;;;6143528;23;20351;-93
2022/01/25 19:33:26;;;;;;;;;;;4.60;99.90;;;;;;6140360;23;19991;-94
2022/01/25 19:35:53;;;;;;;;;;;4.60;99.90;;;;;;6127044;23;20285;-92
2022/01/25 19:38:32;;;;;;;;;;;4.60;99.90;;;;;;6139681;23;20314;-94
2022/01/25 19:44:30;;;;;;;;;;;4.60;99.90;;;;;;6133904;23;19927;-94
2022/01/25 19:46:57;;;;;;;;;;;4.60;99.90;;;;;;6162256;23;19983;-94
2022/01/25 19:49:23;;;;;;;;;;;4.60;99.90;;;;;;6177920;23;20340;-89
2022/01/25 19:51:48;;;;;;;;;;;4.60;99.90;;;;;;6175001;23;19930;-89
2022/01/25 19:54:18;;;;;;;;;;;4.50;99.90;;;;;;6177037;23;19916;-89
2022/01/25 19:56:52;;;;;;;;;;;4.50;99.90;;;;;;6175801;23;19981;-89